Terminal Aerodrome Forecast
Issued by NWS

Home | Current Version | Previous Version | Text Only | Print | Product List | Glossary On
Versions: 1 2 3 4 5 6 7 8 9 10 11 12 13 14 15 16
000
FTUS45 KSLC 171720
TAFSGU
TAF
KSGU 171720Z 1718/1818 23008KT P6SM SCT150
     FM180200 05008KT P6SM SCT150
     FM180900 VRB04KT P6SM FEW150=

USA.gov is the U.S. government's official web portal to all federal, state and local government web resources and services.